createdAt,value
2022-08-07T00:02:41.691Z,16.40
2022-08-07T00:05:23.699Z,16.70
2022-08-07T00:08:25.732Z,16.20
2022-08-07T00:11:30.036Z,16.40
2022-08-07T00:14:36.104Z,16.60
2022-08-07T00:17:37.773Z,15.20
2022-08-07T00:20:41.206Z,16.00
2022-08-07T00:23:43.102Z,16.20
2022-08-07T00:26:49.296Z,16.00
2022-08-07T00:30:07.062Z,16.00
2022-08-07T00:33:28.694Z,15.50
2022-08-07T00:36:34.521Z,15.50
2022-08-07T00:39:36.167Z,16.30
2022-08-07T00:42:46.600Z,15.50
2022-08-07T00:45:51.963Z,15.50
2022-08-07T00:48:54.187Z,15.50
2022-08-07T00:51:57.163Z,16.80
2022-08-07T00:54:59.526Z,15.50
2022-08-07T00:58:06.825Z,15.50
2022-08-07T01:01:08.599Z,15.20
2022-08-07T01:04:10.285Z,15.20
2022-08-07T01:07:12.789Z,16.40
2022-08-07T01:10:15.161Z,15.20
2022-08-07T01:13:21.694Z,15.20
2022-08-07T01:16:30.444Z,15.00
2022-08-07T01:19:33.642Z,15.40
2022-08-07T01:22:46.640Z,15.40
2022-08-07T01:25:56.449Z,15.50
2022-08-07T01:28:58.360Z,15.20
2022-08-07T01:32:00.611Z,15.10
2022-08-07T01:35:07.657Z,15.10
2022-08-07T01:38:11.147Z,15.40
2022-08-07T01:41:26.018Z,14.80
2022-08-07T01:44:28.665Z,15.10
2022-08-07T01:48:27.350Z,15.20
2022-08-07T01:51:24.772Z,14.90
2022-08-07T01:54:32.834Z,14.90
2022-08-07T01:58:06.174Z,15.10
2022-08-07T02:01:25.664Z,15.00
2022-08-07T02:04:39.751Z,15.20
2022-08-07T02:08:02.147Z,15.90
2022-08-07T02:11:04.783Z,14.80
2022-08-07T02:14:08.912Z,15.10
2022-08-07T02:17:13.465Z,15.20
2022-08-07T02:20:28.825Z,15.00
2022-08-07T02:23:35.791Z,15.00
2022-08-07T02:26:39.521Z,15.30
2022-08-07T02:29:48.645Z,15.00
2022-08-07T02:33:00.534Z,14.90
2022-08-07T02:36:28.274Z,15.80
2022-08-07T02:40:02.044Z,15.90
2022-08-07T02:42:57.493Z,14.90
2022-08-07T02:46:02.352Z,14.70
2022-08-07T02:49:05.589Z,14.70
2022-08-07T02:52:13.012Z,14.80
2022-08-07T02:55:28.569Z,14.80
2022-08-07T02:58:47.699Z,14.60
2022-08-07T03:01:52.246Z,14.60
2022-08-07T03:04:59.759Z,14.20
2022-08-07T03:08:09.485Z,14.20
2022-08-07T03:11:12.356Z,14.80
2022-08-07T03:14:15.359Z,14.40
2022-08-07T03:17:17.296Z,14.40
2022-08-07T03:20:19.283Z,14.40
2022-08-07T03:23:21.805Z,14.20
2022-08-07T03:26:43.125Z,15.60
2022-08-07T03:29:57.009Z,14.30
2022-08-07T03:33:01.007Z,14.80
2022-08-07T03:36:02.989Z,14.60
2022-08-07T03:39:11.837Z,14.30
2022-08-07T03:42:17.296Z,14.40
2022-08-07T03:45:30.726Z,14.40
2022-08-07T03:48:35.111Z,14.60
2022-08-07T03:52:01.841Z,14.30
2022-08-07T03:55:07.420Z,14.20
2022-08-07T03:59:05.042Z,14.10
2022-08-07T04:01:33.805Z,14.30
2022-08-07T04:04:41.708Z,14.10
2022-08-07T04:07:48.334Z,14.10
2022-08-07T04:10:54.528Z,13.80
2022-08-07T04:14:37.358Z,13.90
2022-08-07T04:18:30.690Z,13.60
2022-08-07T04:20:57.618Z,16.60
2022-08-07T04:24:04.480Z,14.00
2022-08-07T04:27:15.374Z,13.70
2022-08-07T04:30:39.507Z,14.10
2022-08-07T04:33:46.063Z,14.10
2022-08-07T04:36:49.433Z,13.70
2022-08-07T04:39:51.268Z,13.20
2022-08-07T04:42:53.523Z,13.80
2022-08-07T04:46:01.227Z,13.90
2022-08-07T04:49:24.619Z,14.10
2022-08-07T04:52:51.904Z,14.10
2022-08-07T04:58:12.862Z,14.20
2022-08-07T05:00:11.169Z,13.90
2022-08-07T05:04:08.233Z,13.90
2022-08-07T05:07:27.596Z,14.10
2022-08-07T05:10:47.084Z,14.30
2022-08-07T05:14:55.368Z,16.40
2022-08-07T05:17:50.226Z,14.20
2022-08-07T05:20:57.589Z,15.00
2022-08-07T05:24:03.490Z,14.40
2022-08-07T05:27:07.901Z,14.50
2022-08-07T05:30:32.904Z,14.60
2022-08-07T05:33:37.047Z,14.70
2022-08-07T05:36:42.694Z,15.00
2022-08-07T05:40:17.926Z,15.20
2022-08-07T05:43:10.606Z,15.00
2022-08-07T05:46:13.576Z,15.10
2022-08-07T05:49:15.703Z,15.30
2022-08-07T05:52:20.109Z,14.90
2022-08-07T05:55:22.383Z,15.10
2022-08-07T05:58:36.968Z,15.40
2022-08-07T06:01:40.637Z,15.40
2022-08-07T06:04:50.796Z,15.50
2022-08-07T06:08:13.748Z,15.30
2022-08-07T06:11:15.174Z,15.90
2022-08-07T06:14:20.969Z,16.10
2022-08-07T06:17:30.575Z,15.90
2022-08-07T06:20:51.092Z,16.00
2022-08-07T06:24:38.211Z,16.20
2022-08-07T06:27:44.471Z,16.30
2022-08-07T06:30:52.832Z,16.50
2022-08-07T06:33:55.688Z,17.00
2022-08-07T06:36:58.394Z,16.80
2022-08-07T06:40:16.738Z,16.80
2022-08-07T06:43:24.474Z,17.10
2022-08-07T06:46:31.528Z,17.30
2022-08-07T06:49:51.516Z,18.90
2022-08-07T06:52:57.023Z,17.10
2022-08-07T06:56:02.114Z,19.30
2022-08-07T07:00:11.435Z,18.90
2022-08-07T07:02:53.611Z,17.60
2022-08-07T07:06:04.187Z,18.10
2022-08-07T07:09:36.245Z,18.40
2022-08-07T07:12:53.301Z,18.20
2022-08-07T07:16:00.932Z,20.00
2022-08-07T07:19:33.879Z,18.40
2022-08-07T07:22:39.871Z,19.20
2022-08-07T07:26:33.003Z,19.00
2022-08-07T07:29:57.007Z,18.80
2022-08-07T07:32:55.096Z,20.40
2022-08-07T07:36:05.524Z,19.90
2022-08-07T07:39:16.128Z,19.50
2022-08-07T07:42:25.809Z,19.10
2022-08-07T07:46:53.311Z,19.50
2022-08-07T07:48:59.817Z,20.10
2022-08-07T07:52:03.593Z,19.40
2022-08-07T07:55:09.019Z,21.70
2022-08-07T07:58:14.064Z,20.00
2022-08-07T08:02:03.245Z,20.10
2022-08-07T08:04:45.694Z,20.00
2022-08-07T08:08:01.190Z,20.30
2022-08-07T08:11:08.520Z,20.30
2022-08-07T08:14:10.979Z,20.20
2022-08-07T08:17:55.894Z,20.40
2022-08-07T08:20:38.717Z,20.50
2022-08-07T08:24:03.974Z,20.60
2022-08-07T08:27:09.663Z,20.90
2022-08-07T08:30:14.142Z,20.90
2022-08-07T08:33:18.767Z,20.70
2022-08-07T08:36:29.746Z,21.00
2022-08-07T08:39:39.240Z,21.30
2022-08-07T08:43:15.954Z,21.10
2022-08-07T08:46:44.813Z,21.00
2022-08-07T08:50:34.743Z,21.10
2022-08-07T08:53:59.983Z,20.90
2022-08-07T08:57:08.203Z,21.70
2022-08-07T09:00:11.704Z,21.60
2022-08-07T09:03:47.555Z,21.50
2022-08-07T09:06:55.580Z,21.90
2022-08-07T09:10:07.906Z,21.80
2022-08-07T09:13:14.817Z,21.70
2022-08-07T09:16:39.664Z,22.00
2022-08-07T09:20:35.042Z,21.70
2022-08-07T09:24:31.665Z,21.80
2022-08-07T09:28:00.691Z,23.40
2022-08-07T09:31:07.713Z,21.90
2022-08-07T09:34:55.964Z,19.60
2022-08-07T09:38:13.202Z,22.00
2022-08-07T09:41:43.539Z,22.10
2022-08-07T09:47:50.389Z,22.00
2022-08-07T09:50:00.886Z,22.40
2022-08-07T09:52:57.833Z,22.50
2022-08-07T09:56:05.527Z,22.40
2022-08-07T09:59:35.816Z,22.20
2022-08-07T10:04:07.083Z,23.20
2022-08-07T10:07:24.612Z,22.10
2022-08-07T10:11:07.615Z,22.10
2022-08-07T10:14:31.442Z,22.60
2022-08-07T10:18:02.937Z,22.40
2022-08-07T10:21:19.720Z,23.90
2022-08-07T10:25:04.734Z,23.80
2022-08-07T10:28:37.568Z,22.80
2022-08-07T10:32:00.224Z,22.80
2022-08-07T10:35:56.499Z,22.60
2022-08-07T10:39:19.613Z,22.70
2022-08-07T10:42:43.271Z,22.70
2022-08-07T10:45:58.441Z,23.10
2022-08-07T10:49:14.436Z,23.10
2022-08-07T10:52:31.703Z,24.10
2022-08-07T10:55:50.503Z,22.80
2022-08-07T10:59:40.051Z,22.90
2022-08-07T11:03:00.943Z,23.30
2022-08-07T11:06:18.188Z,23.30
2022-08-07T11:10:09.132Z,23.00
2022-08-07T11:13:02.080Z,24.60
2022-08-07T11:16:19.666Z,23.30
2022-08-07T11:19:40.021Z,23.40
2022-08-07T11:23:26.381Z,23.50
2022-08-07T11:26:49.830Z,23.70
2022-08-07T11:30:17.520Z,23.20
2022-08-07T11:33:59.607Z,23.60
2022-08-07T11:36:56.924Z,23.60
2022-08-07T11:40:10.514Z,23.90
2022-08-07T11:43:41.213Z,24.00
2022-08-07T11:47:04.398Z,23.80
2022-08-07T11:50:30.388Z,24.20
2022-08-07T11:54:11.731Z,24.10
2022-08-07T11:57:57.710Z,23.80
2022-08-07T12:01:22.206Z,24.60
2022-08-07T12:04:57.789Z,22.80
2022-08-07T12:08:11.507Z,23.90
2022-08-07T12:12:10.899Z,24.10
2022-08-07T12:15:46.056Z,25.10
2022-08-07T12:19:14.818Z,24.60
2022-08-07T12:22:56.463Z,25.60
2022-08-07T12:26:30.037Z,24.30
2022-08-07T12:29:40.418Z,24.00
2022-08-07T12:32:58.290Z,24.50
2022-08-07T12:36:02.253Z,24.70
2022-08-07T12:39:41.978Z,24.80
2022-08-07T12:42:31.892Z,24.50
2022-08-07T12:45:44.844Z,24.40
2022-08-07T12:48:57.465Z,24.80
2022-08-07T12:52:46.250Z,24.70
2022-08-07T12:56:02.437Z,25.00
2022-08-07T12:59:08.344Z,24.90
2022-08-07T13:02:26.669Z,25.70
2022-08-07T13:06:21.666Z,25.10
2022-08-07T13:10:21.959Z,25.50
2022-08-07T13:13:48.182Z,25.60
2022-08-07T13:17:18.341Z,26.70
2022-08-07T13:20:36.906Z,25.20
2022-08-07T13:24:11.504Z,25.70
2022-08-07T13:28:06.309Z,25.10
2022-08-07T13:31:06.445Z,25.80
2022-08-07T13:34:35.706Z,27.00
2022-08-07T13:37:58.791Z,26.90
2022-08-07T13:41:47.269Z,26.30
2022-08-07T13:45:20.586Z,25.90
2022-08-07T13:48:27.585Z,26.50
2022-08-07T13:52:04.434Z,27.00
2022-08-07T13:55:06.458Z,26.60
2022-08-07T13:58:31.722Z,27.00
2022-08-07T14:01:51.614Z,27.00
2022-08-07T14:05:04.485Z,27.10
2022-08-07T14:08:08.699Z,28.80
2022-08-07T14:11:17.398Z,27.60
2022-08-07T14:14:22.350Z,28.00
2022-08-07T14:18:13.062Z,27.60
2022-08-07T14:21:08.084Z,28.20
2022-08-07T14:24:22.873Z,28.10
2022-08-07T14:28:10.332Z,28.30
2022-08-07T14:31:03.266Z,29.80
2022-08-07T14:34:07.355Z,29.00
2022-08-07T14:37:16.147Z,30.80
2022-08-07T14:40:26.361Z,29.50
2022-08-07T14:43:55.834Z,30.70
2022-08-07T14:47:08.654Z,29.50
2022-08-07T14:50:19.190Z,31.20
2022-08-07T14:54:05.930Z,29.00
2022-08-07T14:56:49.948Z,29.60
2022-08-07T15:00:05.237Z,29.20
2022-08-07T15:03:19.324Z,29.20
2022-08-07T15:06:25.204Z,29.30
2022-08-07T15:09:59.095Z,29.50
2022-08-07T15:12:54.975Z,29.50
2022-08-07T15:16:02.300Z,30.50
2022-08-07T15:19:13.953Z,29.50
2022-08-07T15:25:46.841Z,28.80
2022-08-07T15:32:39.526Z,27.70
2022-08-07T15:36:04.868Z,27.00
2022-08-07T15:39:10.459Z,27.00
2022-08-07T15:42:51.796Z,26.90
2022-08-07T15:46:00.717Z,27.20
2022-08-07T15:49:14.433Z,26.70
2022-08-07T15:52:30.107Z,25.10
2022-08-07T15:56:02.463Z,25.00
2022-08-07T15:59:00.257Z,25.00
2022-08-07T16:02:03.337Z,24.90
2022-08-07T16:05:15.335Z,24.80
2022-08-07T16:08:33.455Z,25.10
2022-08-07T16:12:12.551Z,26.30
2022-08-07T16:15:55.209Z,24.60
2022-08-07T16:19:13.861Z,24.50
2022-08-07T16:22:54.228Z,24.20
2022-08-07T16:26:31.026Z,24.40
2022-08-07T16:30:09.325Z,25.40
2022-08-07T16:34:01.833Z,23.90
2022-08-07T16:38:03.478Z,24.10
2022-08-07T16:40:51.213Z,24.20
2022-08-07T16:47:56.515Z,24.00
2022-08-07T16:51:54.228Z,24.20
2022-08-07T16:55:11.499Z,23.70
2022-08-07T16:58:22.280Z,23.80
2022-08-07T17:01:34.263Z,23.70
2022-08-07T17:04:50.806Z,23.60
2022-08-07T17:07:58.155Z,23.90
2022-08-07T17:11:06.467Z,25.70
2022-08-07T17:14:17.855Z,23.60
2022-08-07T17:17:44.030Z,23.60
2022-08-07T17:20:49.544Z,23.30
2022-08-07T17:24:14.414Z,24.60
2022-08-07T17:27:32.607Z,24.00
2022-08-07T17:30:58.447Z,23.70
2022-08-07T17:34:34.754Z,26.60
2022-08-07T17:38:06.476Z,24.70
2022-08-07T17:42:04.347Z,24.50
2022-08-07T17:44:55.418Z,24.40
2022-08-07T17:48:06.591Z,25.00
2022-08-07T17:52:00.064Z,25.40
2022-08-07T17:55:55.782Z,25.30
2022-08-07T17:58:57.167Z,24.80
2022-08-07T18:02:15.910Z,24.30
2022-08-07T18:05:24.137Z,24.30
2022-08-07T18:08:31.494Z,24.00
2022-08-07T18:12:17.931Z,26.00
2022-08-07T18:15:32.639Z,23.60
2022-08-07T18:21:04.028Z,23.30
2022-08-07T18:22:29.407Z,23.40
2022-08-07T18:25:39.237Z,23.10
2022-08-07T18:29:03.056Z,22.90
2022-08-07T18:32:34.402Z,22.70
2022-08-07T18:35:58.690Z,22.90
2022-08-07T18:40:06.953Z,22.90
2022-08-07T18:43:36.957Z,22.50
2022-08-07T18:46:51.559Z,21.70
2022-08-07T18:50:39.224Z,22.40
2022-08-07T18:53:48.843Z,22.30
2022-08-07T18:57:31.048Z,21.90
2022-08-07T19:00:43.005Z,22.10
2022-08-07T19:04:09.603Z,22.30
2022-08-07T19:07:51.875Z,22.00
2022-08-07T19:11:35.216Z,21.70
2022-08-07T19:15:00.678Z,20.20
2022-08-07T19:18:35.506Z,22.10
2022-08-07T19:22:31.259Z,21.90
2022-08-07T19:26:23.728Z,21.70
2022-08-07T19:31:05.750Z,19.20
2022-08-07T19:32:44.341Z,21.70
2022-08-07T19:36:01.427Z,21.60
2022-08-07T19:39:17.317Z,22.90
2022-08-07T19:42:47.142Z,21.40
2022-08-07T19:46:10.139Z,21.30
2022-08-07T19:49:19.796Z,20.90
2022-08-07T19:52:59.042Z,21.60
2022-08-07T19:57:51.537Z,23.00
2022-08-07T19:59:41.503Z,21.20
2022-08-07T20:02:51.934Z,23.20
2022-08-07T20:06:04.406Z,21.30
2022-08-07T20:09:07.448Z,21.20
2022-08-07T20:12:32.333Z,18.00
2022-08-07T20:15:43.880Z,21.10
2022-08-07T20:18:48.362Z,20.80
2022-08-07T20:21:51.909Z,20.70
2022-08-07T20:25:03.486Z,19.60
2022-08-07T20:28:10.844Z,20.70
2022-08-07T20:31:21.770Z,22.20
2022-08-07T20:34:49.266Z,20.80
2022-08-07T20:37:58.935Z,20.60
2022-08-07T20:41:05.634Z,20.70
2022-08-07T20:44:10.387Z,20.50
2022-08-07T20:47:17.804Z,20.40
2022-08-07T20:50:30.619Z,20.30
2022-08-07T20:54:03.141Z,19.80
2022-08-07T20:57:05.859Z,22.70
2022-08-07T21:00:11.069Z,20.40
2022-08-07T21:03:25.903Z,20.00
2022-08-07T21:06:31.610Z,19.70
2022-08-07T21:09:52.678Z,19.60
2022-08-07T21:13:00.422Z,19.70
2022-08-07T21:16:05.084Z,19.20
2022-08-07T21:19:13.845Z,19.40
2022-08-07T21:22:19.156Z,20.30
2022-08-07T21:25:42.398Z,19.10
2022-08-07T21:29:02.393Z,19.80
2022-08-07T21:32:48.589Z,19.60
2022-08-07T21:36:12.030Z,19.90
2022-08-07T21:39:47.691Z,19.60
2022-08-07T21:43:01.200Z,21.10
2022-08-07T21:46:25.290Z,19.40
2022-08-07T21:50:02.872Z,19.40
2022-08-07T21:53:20.604Z,19.20
2022-08-07T21:56:49.113Z,21.10
2022-08-07T22:00:22.956Z,18.90
2022-08-07T22:03:40.834Z,19.00
2022-08-07T22:07:07.612Z,18.70
2022-08-07T22:10:12.824Z,19.10
2022-08-07T22:13:16.683Z,19.10
2022-08-07T22:16:49.032Z,18.80
2022-08-07T22:20:23.998Z,18.90
2022-08-07T22:23:41.320Z,18.60
2022-08-07T22:26:49.445Z,18.50
2022-08-07T22:30:06.235Z,18.40
2022-08-07T22:33:15.111Z,18.50
2022-08-07T22:36:28.465Z,18.70
2022-08-07T22:39:53.480Z,18.30
2022-08-07T22:43:03.210Z,18.80
2022-08-07T22:47:03.650Z,18.70
2022-08-07T22:49:57.067Z,18.40
2022-08-07T22:54:07.672Z,18.50
2022-08-07T22:57:16.973Z,18.30
2022-08-07T23:00:28.559Z,18.70
2022-08-07T23:04:04.882Z,18.60
2022-08-07T23:07:42.974Z,18.00
2022-08-07T23:11:12.838Z,18.30
2022-08-07T23:14:35.631Z,17.80
2022-08-07T23:18:02.036Z,17.90
2022-08-07T23:21:36.699Z,18.00
2022-08-07T23:25:20.937Z,17.70
2022-08-07T23:28:54.699Z,18.00
2022-08-07T23:34:21.412Z,17.80
2022-08-07T23:35:47.031Z,17.80
2022-08-07T23:39:22.459Z,19.40
2022-08-07T23:42:48.103Z,17.60
2022-08-07T23:46:13.715Z,17.70
2022-08-07T23:49:50.401Z,15.00
2022-08-07T23:53:08.535Z,17.40
2022-08-07T23:56:26.521Z,18.00
